Terminal Aerodrome Forecast
Issued by NWS Billings, MT

Home | Current Version | Previous Version | Graphics & Text | Print | Product List | Glossary On
Versions: 1 2 3 4 5 6 7 8 9 10 11 12 13 14 15 16 17 18 19 20 21 22 23 24 25 26 27 28 29 30 31 32 33 34 35 36 37 38 39 40
000
FTUS45 KBYZ 222320
TAFMLS
TAF
KMLS 222320Z 2300/2324 05015KT P6SM VCSH FEW030 FEW045 OVC060
     FM230000 08010KT 6SM -RA SCT015 OVC020
     FM230700 06015KT 4SM -RA BR BKN003 OVC020=

USA.gov is the U.S. government's official web portal to all federal, state and local government web resources and services.